sensor_id;sensor_type;location;lat;lon;timestamp;temperature;humidity
15483;DHT22;7843;50.330;7.312;2023-04-01T00:01:05;9.10;99.90
15483;DHT22;7843;50.330;7.312;2023-04-01T00:03:32;9.10;99.90
15483;DHT22;7843;50.330;7.312;2023-04-01T00:06:00;9.10;99.90
15483;DHT22;7843;50.330;7.312;2023-04-01T00:08:28;9.10;99.90
15483;DHT22;7843;50.330;7.312;2023-04-01T00:10:55;9.10;99.90
15483;DHT22;7843;50.330;7.312;2023-04-01T00:13:24;9.10;99.90
15483;DHT22;7843;50.330;7.312;2023-04-01T00:15:53;9.10;99.90
15483;DHT22;7843;50.330;7.312;2023-04-01T00:18:22;9.10;99.90
15483;DHT22;7843;50.330;7.312;2023-04-01T00:20:51;9.20;99.90
15483;DHT22;7843;50.330;7.312;2023-04-01T00:23:18;9.20;99.90
15483;DHT22;7843;50.330;7.312;2023-04-01T00:25:46;9.20;99.90
15483;DHT22;7843;50.330;7.312;2023-04-01T00:28:15;9.20;99.90
15483;DHT22;7843;50.330;7.312;2023-04-01T00:30:42;9.20;99.90
15483;DHT22;7843;50.330;7.312;2023-04-01T00:33:10;9.20;99.90
15483;DHT22;7843;50.330;7.312;2023-04-01T00:35:37;9.10;99.90
15483;DHT22;7843;50.330;7.312;2023-04-01T00:38:04;9.10;99.90
15483;DHT22;7843;50.330;7.312;2023-04-01T00:40:33;9.10;99.90
15483;DHT22;7843;50.330;7.312;2023-04-01T00:43:02;9.10;99.90
15483;DHT22;7843;50.330;7.312;2023-04-01T00:48:06;9.20;99.90
15483;DHT22;7843;50.330;7.312;2023-04-01T00:50:34;9.20;99.90
15483;DHT22;7843;50.330;7.312;2023-04-01T00:53:02;9.10;99.90
15483;DHT22;7843;50.330;7.312;2023-04-01T00:55:32;9.10;99.90
15483;DHT22;7843;50.330;7.312;2023-04-01T00:58:03;9.20;99.90
15483;DHT22;7843;50.330;7.312;2023-04-01T01:00:32;9.20;99.90
15483;DHT22;7843;50.330;7.312;2023-04-01T01:02:58;9.20;99.90
15483;DHT22;7843;50.330;7.312;2023-04-01T01:08:37;9.20;99.90
15483;DHT22;7843;50.330;7.312;2023-04-01T01:11:08;9.20;99.90
15483;DHT22;7843;50.330;7.312;2023-04-01T01:13:43;9.20;99.90
15483;DHT22;7843;50.330;7.312;2023-04-01T01:16:28;9.20;99.90
15483;DHT22;7843;50.330;7.312;2023-04-01T01:24:47;9.20;99.90
15483;DHT22;7843;50.330;7.312;2023-04-01T01:27:18;9.20;99.90
15483;DHT22;7843;50.330;7.312;2023-04-01T01:33:10;9.20;99.90
15483;DHT22;7843;50.330;7.312;2023-04-01T01:35:46;9.10;99.90
15483;DHT22;7843;50.330;7.312;2023-04-01T01:38:17;9.10;99.90
15483;DHT22;7843;50.330;7.312;2023-04-01T01:40:48;9.10;99.90
15483;DHT22;7843;50.330;7.312;2023-04-01T01:43:21;9.10;99.90
15483;DHT22;7843;50.330;7.312;2023-04-01T01:45:54;9.10;99.90
15483;DHT22;7843;50.330;7.312;2023-04-01T01:48:23;9.10;99.90
15483;DHT22;7843;50.330;7.312;2023-04-01T01:50:51;9.10;99.90
15483;DHT22;7843;50.330;7.312;2023-04-01T01:53:18;9.00;99.90
15483;DHT22;7843;50.330;7.312;2023-04-01T01:55:47;9.10;99.90
15483;DHT22;7843;50.330;7.312;2023-04-01T01:58:22;9.00;99.90
15483;DHT22;7843;50.330;7.312;2023-04-01T02:00:54;9.00;99.90
15483;DHT22;7843;50.330;7.312;2023-04-01T02:03:23;9.00;99.90
15483;DHT22;7843;50.330;7.312;2023-04-01T02:05:53;8.90;99.90
15483;DHT22;7843;50.330;7.312;2023-04-01T02:09:10;8.90;99.90
15483;DHT22;7843;50.330;7.312;2023-04-01T02:11:13;8.90;99.90
15483;DHT22;7843;50.330;7.312;2023-04-01T02:13:52;8.90;99.90
15483;DHT22;7843;50.330;7.312;2023-04-01T02:16:25;8.90;99.90
15483;DHT22;7843;50.330;7.312;2023-04-01T02:18:53;8.80;99.90
15483;DHT22;7843;50.330;7.312;2023-04-01T02:21:24;8.80;99.90
15483;DHT22;7843;50.330;7.312;2023-04-01T02:23:53;8.80;99.90
15483;DHT22;7843;50.330;7.312;2023-04-01T02:26:21;8.80;99.90
15483;DHT22;7843;50.330;7.312;2023-04-01T02:28:49;8.90;99.90
15483;DHT22;7843;50.330;7.312;2023-04-01T02:31:17;8.90;99.90
15483;DHT22;7843;50.330;7.312;2023-04-01T02:33:44;8.90;99.90
15483;DHT22;7843;50.330;7.312;2023-04-01T02:36:15;8.80;99.90
15483;DHT22;7843;50.330;7.312;2023-04-01T02:38:44;8.80;99.90
15483;DHT22;7843;50.330;7.312;2023-04-01T02:41:12;8.80;99.90
15483;DHT22;7843;50.330;7.312;2023-04-01T02:43:39;8.80;99.90
15483;DHT22;7843;50.330;7.312;2023-04-01T02:46:05;8.80;99.90
15483;DHT22;7843;50.330;7.312;2023-04-01T02:48:32;8.90;99.90
15483;DHT22;7843;50.330;7.312;2023-04-01T02:50:59;8.90;99.90
15483;DHT22;7843;50.330;7.312;2023-04-01T02:53:25;8.90;99.90
15483;DHT22;7843;50.330;7.312;2023-04-01T02:55:52;8.80;99.90
15483;DHT22;7843;50.330;7.312;2023-04-01T02:58:19;8.80;99.90
15483;DHT22;7843;50.330;7.312;2023-04-01T03:00:46;8.80;99.90
15483;DHT22;7843;50.330;7.312;2023-04-01T03:03:13;8.80;99.90
15483;DHT22;7843;50.330;7.312;2023-04-01T03:05:40;8.80;99.90
15483;DHT22;7843;50.330;7.312;2023-04-01T03:08:07;8.90;99.90
15483;DHT22;7843;50.330;7.312;2023-04-01T03:10:33;8.90;99.90
15483;DHT22;7843;50.330;7.312;2023-04-01T03:13:00;8.80;99.90
15483;DHT22;7843;50.330;7.312;2023-04-01T03:15:27;8.90;99.90
15483;DHT22;7843;50.330;7.312;2023-04-01T03:17:54;8.90;99.90
15483;DHT22;7843;50.330;7.312;2023-04-01T03:20:20;8.90;99.90
15483;DHT22;7843;50.330;7.312;2023-04-01T03:22:47;8.90;99.90
15483;DHT22;7843;50.330;7.312;2023-04-01T03:25:14;8.90;99.90
15483;DHT22;7843;50.330;7.312;2023-04-01T03:27:41;8.90;99.90
15483;DHT22;7843;50.330;7.312;2023-04-01T03:30:08;8.90;99.90
15483;DHT22;7843;50.330;7.312;2023-04-01T03:32:35;8.80;99.90
15483;DHT22;7843;50.330;7.312;2023-04-01T03:35:02;8.90;99.90
15483;DHT22;7843;50.330;7.312;2023-04-01T03:37:29;8.80;99.90
15483;DHT22;7843;50.330;7.312;2023-04-01T03:39:56;8.80;99.90
15483;DHT22;7843;50.330;7.312;2023-04-01T03:42:23;8.80;99.90
15483;DHT22;7843;50.330;7.312;2023-04-01T03:44:49;8.80;99.90
15483;DHT22;7843;50.330;7.312;2023-04-01T03:47:16;8.80;99.90
15483;DHT22;7843;50.330;7.312;2023-04-01T03:49:43;8.80;99.90
15483;DHT22;7843;50.330;7.312;2023-04-01T03:52:10;8.80;99.90
15483;DHT22;7843;50.330;7.312;2023-04-01T03:54:37;8.80;99.90
15483;DHT22;7843;50.330;7.312;2023-04-01T03:57:04;8.80;99.90
15483;DHT22;7843;50.330;7.312;2023-04-01T03:59:31;8.70;99.90
15483;DHT22;7843;50.330;7.312;2023-04-01T04:01:57;8.70;99.90
15483;DHT22;7843;50.330;7.312;2023-04-01T04:04:24;8.70;99.90
15483;DHT22;7843;50.330;7.312;2023-04-01T04:06:52;8.70;99.90
15483;DHT22;7843;50.330;7.312;2023-04-01T04:09:19;8.70;99.90
15483;DHT22;7843;50.330;7.312;2023-04-01T04:11:46;8.70;99.90
15483;DHT22;7843;50.330;7.312;2023-04-01T04:14:13;8.70;99.90
15483;DHT22;7843;50.330;7.312;2023-04-01T04:16:39;8.70;99.90
15483;DHT22;7843;50.330;7.312;2023-04-01T04:19:06;8.70;99.90
15483;DHT22;7843;50.330;7.312;2023-04-01T04:21:33;8.70;99.90
15483;DHT22;7843;50.330;7.312;2023-04-01T04:24:00;8.70;99.90
15483;DHT22;7843;50.330;7.312;2023-04-01T04:26:27;8.70;99.90
15483;DHT22;7843;50.330;7.312;2023-04-01T04:28:55;8.70;99.90
15483;DHT22;7843;50.330;7.312;2023-04-01T04:31:23;8.70;99.90
15483;DHT22;7843;50.330;7.312;2023-04-01T04:33:51;8.70;99.90
15483;DHT22;7843;50.330;7.312;2023-04-01T04:36:19;8.70;99.90
15483;DHT22;7843;50.330;7.312;2023-04-01T04:38:46;8.70;99.90
15483;DHT22;7843;50.330;7.312;2023-04-01T04:41:14;8.70;99.90
15483;DHT22;7843;50.330;7.312;2023-04-01T04:43:42;8.70;99.90
15483;DHT22;7843;50.330;7.312;2023-04-01T04:46:09;8.60;99.90
15483;DHT22;7843;50.330;7.312;2023-04-01T04:48:36;8.60;99.90
15483;DHT22;7843;50.330;7.312;2023-04-01T04:51:03;8.60;99.90
15483;DHT22;7843;50.330;7.312;2023-04-01T04:53:30;8.60;99.90
15483;DHT22;7843;50.330;7.312;2023-04-01T04:55:57;8.50;99.90
15483;DHT22;7843;50.330;7.312;2023-04-01T04:58:23;8.50;99.90
15483;DHT22;7843;50.330;7.312;2023-04-01T05:00:50;8.50;99.90
15483;DHT22;7843;50.330;7.312;2023-04-01T05:03:17;8.50;99.90
15483;DHT22;7843;50.330;7.312;2023-04-01T05:05:52;8.40;99.90
15483;DHT22;7843;50.330;7.312;2023-04-01T05:08:19;8.40;99.90
15483;DHT22;7843;50.330;7.312;2023-04-01T05:10:46;8.40;99.90
15483;DHT22;7843;50.330;7.312;2023-04-01T05:13:12;8.40;99.90
15483;DHT22;7843;50.330;7.312;2023-04-01T05:15:39;8.40;99.90
15483;DHT22;7843;50.330;7.312;2023-04-01T05:18:06;8.50;99.90
15483;DHT22;7843;50.330;7.312;2023-04-01T05:20:33;8.50;99.90
15483;DHT22;7843;50.330;7.312;2023-04-01T05:23:00;8.50;99.90
15483;DHT22;7843;50.330;7.312;2023-04-01T05:25:27;8.50;99.90
15483;DHT22;7843;50.330;7.312;2023-04-01T05:27:57;8.50;99.90
15483;DHT22;7843;50.330;7.312;2023-04-01T05:30:23;8.50;99.90
15483;DHT22;7843;50.330;7.312;2023-04-01T05:32:50;8.50;99.90
15483;DHT22;7843;50.330;7.312;2023-04-01T05:35:17;8.60;99.90
15483;DHT22;7843;50.330;7.312;2023-04-01T05:37:43;8.60;99.90
15483;DHT22;7843;50.330;7.312;2023-04-01T05:40:10;8.60;99.90
15483;DHT22;7843;50.330;7.312;2023-04-01T05:42:37;8.70;99.90
15483;DHT22;7843;50.330;7.312;2023-04-01T05:45:04;8.70;99.90
15483;DHT22;7843;50.330;7.312;2023-04-01T05:47:31;8.80;99.90
15483;DHT22;7843;50.330;7.312;2023-04-01T05:49:58;8.80;99.90
15483;DHT22;7843;50.330;7.312;2023-04-01T05:52:25;8.80;99.90
15483;DHT22;7843;50.330;7.312;2023-04-01T05:54:51;8.80;99.90
15483;DHT22;7843;50.330;7.312;2023-04-01T05:57:18;8.80;99.90
15483;DHT22;7843;50.330;7.312;2023-04-01T05:59:45;8.90;99.90
15483;DHT22;7843;50.330;7.312;2023-04-01T06:02:12;8.80;99.90
15483;DHT22;7843;50.330;7.312;2023-04-01T06:04:40;8.80;99.90
15483;DHT22;7843;50.330;7.312;2023-04-01T06:07:17;8.90;99.90
15483;DHT22;7843;50.330;7.312;2023-04-01T06:09:45;8.90;99.90
15483;DHT22;7843;50.330;7.312;2023-04-01T06:12:24;8.90;99.90
15483;DHT22;7843;50.330;7.312;2023-04-01T06:26:28;9.00;99.90
15483;DHT22;7843;50.330;7.312;2023-04-01T06:29:13;9.00;99.90
15483;DHT22;7843;50.330;7.312;2023-04-01T06:32:20;9.00;99.90
15483;DHT22;7843;50.330;7.312;2023-04-01T06:35:02;9.00;99.90
15483;DHT22;7843;50.330;7.312;2023-04-01T06:43:34;9.10;99.90
15483;DHT22;7843;50.330;7.312;2023-04-01T06:46:22;9.20;99.90
15483;DHT22;7843;50.330;7.312;2023-04-01T06:49:02;9.30;99.90
15483;DHT22;7843;50.330;7.312;2023-04-01T06:51:47;9.30;99.90
15483;DHT22;7843;50.330;7.312;2023-04-01T06:54:26;9.30;99.90
15483;DHT22;7843;50.330;7.312;2023-04-01T06:56:59;9.40;99.90
15483;DHT22;7843;50.330;7.312;2023-04-01T06:59:30;9.40;99.90
15483;DHT22;7843;50.330;7.312;2023-04-01T07:02:04;9.50;99.90
15483;DHT22;7843;50.330;7.312;2023-04-01T07:04:35;9.50;99.90
15483;DHT22;7843;50.330;7.312;2023-04-01T07:07:10;9.60;99.90
15483;DHT22;7843;50.330;7.312;2023-04-01T07:09:45;9.60;99.90
15483;DHT22;7843;50.330;7.312;2023-04-01T07:15:13;9.80;99.90
15483;DHT22;7843;50.330;7.312;2023-04-01T07:17:43;9.90;99.90
15483;DHT22;7843;50.330;7.312;2023-04-01T07:20:25;10.00;99.90
15483;DHT22;7843;50.330;7.312;2023-04-01T07:22:57;10.00;99.90
15483;DHT22;7843;50.330;7.312;2023-04-01T07:25:29;10.00;99.90
15483;DHT22;7843;50.330;7.312;2023-04-01T07:28:02;10.10;99.90
15483;DHT22;7843;50.330;7.312;2023-04-01T07:30:40;10.20;99.90
15483;DHT22;7843;50.330;7.312;2023-04-01T07:33:19;10.20;99.90
15483;DHT22;7843;50.330;7.312;2023-04-01T07:36:26;10.20;99.90
15483;DHT22;7843;50.330;7.312;2023-04-01T07:44:31;10.40;99.90
15483;DHT22;7843;50.330;7.312;2023-04-01T07:49:58;10.50;99.90
15483;DHT22;7843;50.330;7.312;2023-04-01T07:53:26;10.60;99.90
15483;DHT22;7843;50.330;7.312;2023-04-01T07:55:42;10.60;99.90
15483;DHT22;7843;50.330;7.312;2023-04-01T08:00:56;10.80;99.90
15483;DHT22;7843;50.330;7.312;2023-04-01T08:03:35;10.90;99.90
15483;DHT22;7843;50.330;7.312;2023-04-01T08:09:15;11.10;99.90
15483;DHT22;7843;50.330;7.312;2023-04-01T08:18:00;11.20;99.90
15483;DHT22;7843;50.330;7.312;2023-04-01T08:20:51;11.30;99.40
15483;DHT22;7843;50.330;7.312;2023-04-01T08:23:46;11.40;99.70
15483;DHT22;7843;50.330;7.312;2023-04-01T08:26:47;11.40;99.50
15483;DHT22;7843;50.330;7.312;2023-04-01T08:29:20;11.50;99.90
15483;DHT22;7843;50.330;7.312;2023-04-01T08:31:55;11.50;99.90
15483;DHT22;7843;50.330;7.312;2023-04-01T08:34:28;11.60;98.90
15483;DHT22;7843;50.330;7.312;2023-04-01T08:37:02;11.60;98.90
15483;DHT22;7843;50.330;7.312;2023-04-01T08:39:39;11.60;99.40
15483;DHT22;7843;50.330;7.312;2023-04-01T08:42:31;11.60;99.20
15483;DHT22;7843;50.330;7.312;2023-04-01T08:45:56;11.70;99.20
15483;DHT22;7843;50.330;7.312;2023-04-01T08:51:16;11.70;97.30
15483;DHT22;7843;50.330;7.312;2023-04-01T08:54:26;11.50;97.50
15483;DHT22;7843;50.330;7.312;2023-04-01T08:57:08;11.40;98.20
15483;DHT22;7843;50.330;7.312;2023-04-01T08:59:57;11.40;99.20
15483;DHT22;7843;50.330;7.312;2023-04-01T09:03:02;11.50;98.80
15483;DHT22;7843;50.330;7.312;2023-04-01T09:06:06;11.60;97.60
15483;DHT22;7843;50.330;7.312;2023-04-01T09:28:59;12.60;94.60
15483;DHT22;7843;50.330;7.312;2023-04-01T09:34:57;12.60;95.50
15483;DHT22;7843;50.330;7.312;2023-04-01T09:37:51;12.60;94.80
15483;DHT22;7843;50.330;7.312;2023-04-01T09:51:44;12.20;94.80
15483;DHT22;7843;50.330;7.312;2023-04-01T10:05:29;12.50;92.10
15483;DHT22;7843;50.330;7.312;2023-04-01T10:14:15;12.80;92.10
15483;DHT22;7843;50.330;7.312;2023-04-01T10:20:01;13.00;91.70
15483;DHT22;7843;50.330;7.312;2023-04-01T10:23:08;13.00;91.80
15483;DHT22;7843;50.330;7.312;2023-04-01T10:34:42;12.80;94.10
15483;DHT22;7843;50.330;7.312;2023-04-01T10:37:50;12.90;94.50
15483;DHT22;7843;50.330;7.312;2023-04-01T10:40:57;13.20;96.40
15483;DHT22;7843;50.330;7.312;2023-04-01T10:54:43;13.50;92.70
15483;DHT22;7843;50.330;7.312;2023-04-01T11:23:42;13.40;91.20
15483;DHT22;7843;50.330;7.312;2023-04-01T11:26:39;13.40;90.90
15483;DHT22;7843;50.330;7.312;2023-04-01T11:29:40;13.30;91.90
15483;DHT22;7843;50.330;7.312;2023-04-01T11:32:57;13.40;91.50
15483;DHT22;7843;50.330;7.312;2023-04-01T11:41:40;13.40;88.20
15483;DHT22;7843;50.330;7.312;2023-04-01T11:44:16;13.40;90.40
15483;DHT22;7843;50.330;7.312;2023-04-01T11:47:09;13.60;91.20
15483;DHT22;7843;50.330;7.312;2023-04-01T11:55:19;13.90;89.10
15483;DHT22;7843;50.330;7.312;2023-04-01T11:58:18;13.80;90.70
15483;DHT22;7843;50.330;7.312;2023-04-01T12:09:01;13.40;92.60
15483;DHT22;7843;50.330;7.312;2023-04-01T12:17:08;13.70;89.80
15483;DHT22;7843;50.330;7.312;2023-04-01T12:19:59;13.60;89.80
15483;DHT22;7843;50.330;7.312;2023-04-01T12:34:30;13.20;91.50
15483;DHT22;7843;50.330;7.312;2023-04-01T12:37:10;13.00;92.70
15483;DHT22;7843;50.330;7.312;2023-04-01T12:45:34;13.60;92.70
15483;DHT22;7843;50.330;7.312;2023-04-01T12:48:13;13.80;91.30
15483;DHT22;7843;50.330;7.312;2023-04-01T12:59:42;14.30;88.60
15483;DHT22;7843;50.330;7.312;2023-04-01T13:02:49;14.30;86.70
15483;DHT22;7843;50.330;7.312;2023-04-01T13:08:38;15.00;86.10
15483;DHT22;7843;50.330;7.312;2023-04-01T13:16:37;15.80;84.40
15483;DHT22;7843;50.330;7.312;2023-04-01T13:19:13;15.40;84.10
15483;DHT22;7843;50.330;7.312;2023-04-01T13:22:20;15.40;84.80
15483;DHT22;7843;50.330;7.312;2023-04-01T13:25:06;15.70;83.10
15483;DHT22;7843;50.330;7.312;2023-04-01T13:27:38;15.60;82.30
15483;DHT22;7843;50.330;7.312;2023-04-01T13:36:14;15.00;82.80
15483;DHT22;7843;50.330;7.312;2023-04-01T13:44:28;14.50;85.00
15483;DHT22;7843;50.330;7.312;2023-04-01T13:47:17;14.50;86.70
15483;DHT22;7843;50.330;7.312;2023-04-01T13:58:14;14.80;85.10
15483;DHT22;7843;50.330;7.312;2023-04-01T14:06:44;14.30;85.70
15483;DHT22;7843;50.330;7.312;2023-04-01T14:20:27;15.40;83.90
15483;DHT22;7843;50.330;7.312;2023-04-01T14:23:19;15.90;82.80
15483;DHT22;7843;50.330;7.312;2023-04-01T14:32:23;16.40;82.40
15483;DHT22;7843;50.330;7.312;2023-04-01T14:35:04;16.20;79.20
15483;DHT22;7843;50.330;7.312;2023-04-01T14:40:54;15.10;82.00
15483;DHT22;7843;50.330;7.312;2023-04-01T14:51:15;14.90;84.30
15483;DHT22;7843;50.330;7.312;2023-04-01T14:54:02;14.90;84.40
15483;DHT22;7843;50.330;7.312;2023-04-01T14:56:49;15.30;83.80
15483;DHT22;7843;50.330;7.312;2023-04-01T15:04:33;16.80;79.00
15483;DHT22;7843;50.330;7.312;2023-04-01T15:10:45;16.40;79.00
15483;DHT22;7843;50.330;7.312;2023-04-01T15:16:01;16.00;79.80
15483;DHT22;7843;50.330;7.312;2023-04-01T15:21:13;16.20;81.70
15483;DHT22;7843;50.330;7.312;2023-04-01T15:42:51;15.90;80.50
15483;DHT22;7843;50.330;7.312;2023-04-01T15:48:19;14.80;84.10
15483;DHT22;7843;50.330;7.312;2023-04-01T15:51:05;15.10;84.20
15483;DHT22;7843;50.330;7.312;2023-04-01T15:53:57;15.10;83.60
15483;DHT22;7843;50.330;7.312;2023-04-01T15:56:44;14.60;84.90
15483;DHT22;7843;50.330;7.312;2023-04-01T15:59:41;14.30;87.00
15483;DHT22;7843;50.330;7.312;2023-04-01T16:04:56;14.20;88.20
15483;DHT22;7843;50.330;7.312;2023-04-01T16:18:13;14.10;87.30
15483;DHT22;7843;50.330;7.312;2023-04-01T16:26:41;14.30;87.30
15483;DHT22;7843;50.330;7.312;2023-04-01T16:29:33;14.00;86.50
15483;DHT22;7843;50.330;7.312;2023-04-01T16:32:27;13.60;87.90
15483;DHT22;7843;50.330;7.312;2023-04-01T16:35:16;13.40;88.60
15483;DHT22;7843;50.330;7.312;2023-04-01T16:37:54;13.20;89.30
15483;DHT22;7843;50.330;7.312;2023-04-01T16:40:47;13.20;90.20
15483;DHT22;7843;50.330;7.312;2023-04-01T16:43:38;13.30;89.60
15483;DHT22;7843;50.330;7.312;2023-04-01T16:54:54;13.40;89.40
15483;DHT22;7843;50.330;7.312;2023-04-01T17:00:41;13.20;90.20
15483;DHT22;7843;50.330;7.312;2023-04-01T17:03:15;13.10;90.10
15483;DHT22;7843;50.330;7.312;2023-04-01T17:06:00;13.00;90.50
15483;DHT22;7843;50.330;7.312;2023-04-01T17:11:54;12.80;90.80
15483;DHT22;7843;50.330;7.312;2023-04-01T17:17:17;12.60;91.40
15483;DHT22;7843;50.330;7.312;2023-04-01T17:30:58;12.40;92.00
15483;DHT22;7843;50.330;7.312;2023-04-01T17:33:49;12.30;92.30
15483;DHT22;7843;50.330;7.312;2023-04-01T17:36:47;12.10;92.00
15483;DHT22;7843;50.330;7.312;2023-04-01T17:39:37;11.90;92.70
15483;DHT22;7843;50.330;7.312;2023-04-01T17:45:11;11.70;93.70
15483;DHT22;7843;50.330;7.312;2023-04-01T17:50:35;11.40;94.40
15483;DHT22;7843;50.330;7.312;2023-04-01T17:56:03;11.40;94.50
15483;DHT22;7843;50.330;7.312;2023-04-01T17:58:43;11.30;94.70
15483;DHT22;7843;50.330;7.312;2023-04-01T18:01:54;11.30;95.00
15483;DHT22;7843;50.330;7.312;2023-04-01T18:10:23;11.10;96.30
15483;DHT22;7843;50.330;7.312;2023-04-01T18:23:56;10.90;97.70
15483;DHT22;7843;50.330;7.312;2023-04-01T18:26:31;10.90;98.20
15483;DHT22;7843;50.330;7.312;2023-04-01T18:29:13;10.90;98.30
15483;DHT22;7843;50.330;7.312;2023-04-01T18:31:52;10.90;98.50
15483;DHT22;7843;50.330;7.312;2023-04-01T18:37:24;10.80;98.50
15483;DHT22;7843;50.330;7.312;2023-04-01T18:50:59;10.60;98.10
15483;DHT22;7843;50.330;7.312;2023-04-01T18:53:53;10.60;98.20
15483;DHT22;7843;50.330;7.312;2023-04-01T18:56:29;10.50;98.30
15483;DHT22;7843;50.330;7.312;2023-04-01T19:07:46;10.40;98.70
15483;DHT22;7843;50.330;7.312;2023-04-01T19:10:21;10.40;98.70
15483;DHT22;7843;50.330;7.312;2023-04-01T19:16:09;10.20;98.80
15483;DHT22;7843;50.330;7.312;2023-04-01T19:18:47;10.10;98.90
15483;DHT22;7843;50.330;7.312;2023-04-01T19:21:18;10.10;99.20
15483;DHT22;7843;50.330;7.312;2023-04-01T19:26:45;10.00;99.40
15483;DHT22;7843;50.330;7.312;2023-04-01T19:32:08;9.90;99.70
15483;DHT22;7843;50.330;7.312;2023-04-01T19:37:35;9.90;99.60
15483;DHT22;7843;50.330;7.312;2023-04-01T19:50:48;10.00;99.90
15483;DHT22;7843;50.330;7.312;2023-04-01T19:53:32;10.00;99.90
15483;DHT22;7843;50.330;7.312;2023-04-01T19:56:18;9.90;99.90
15483;DHT22;7843;50.330;7.312;2023-04-01T19:58:56;9.80;99.90
15483;DHT22;7843;50.330;7.312;2023-04-01T20:01:53;9.80;99.90
15483;DHT22;7843;50.330;7.312;2023-04-01T20:07:20;9.80;99.90
15483;DHT22;7843;50.330;7.312;2023-04-01T20:10:10;9.80;99.90
15483;DHT22;7843;50.330;7.312;2023-04-01T20:13:04;9.80;99.90
15483;DHT22;7843;50.330;7.312;2023-04-01T20:15:44;9.80;99.90
15483;DHT22;7843;50.330;7.312;2023-04-01T20:18:20;9.80;99.90
15483;DHT22;7843;50.330;7.312;2023-04-01T20:21:02;9.80;99.90
15483;DHT22;7843;50.330;7.312;2023-04-01T20:26:05;9.80;99.90
15483;DHT22;7843;50.330;7.312;2023-04-01T20:31:43;9.80;99.90
15483;DHT22;7843;50.330;7.312;2023-04-01T20:37:29;9.80;99.90
15483;DHT22;7843;50.330;7.312;2023-04-01T20:40:20;9.80;99.90
15483;DHT22;7843;50.330;7.312;2023-04-01T20:43:23;9.80;99.90
15483;DHT22;7843;50.330;7.312;2023-04-01T20:57:30;9.80;99.90
15483;DHT22;7843;50.330;7.312;2023-04-01T21:03:18;9.70;99.90
15483;DHT22;7843;50.330;7.312;2023-04-01T21:08:43;9.70;99.90
15483;DHT22;7843;50.330;7.312;2023-04-01T21:15:32;9.60;99.90
15483;DHT22;7843;50.330;7.312;2023-04-01T21:20:49;9.50;99.90
15483;DHT22;7843;50.330;7.312;2023-04-01T21:31:52;9.40;99.90
15483;DHT22;7843;50.330;7.312;2023-04-01T21:34:42;9.30;99.90
15483;DHT22;7843;50.330;7.312;2023-04-01T21:37:33;9.30;99.90
15483;DHT22;7843;50.330;7.312;2023-04-01T21:46:48;9.20;99.90
15483;DHT22;7843;50.330;7.312;2023-04-01T21:49:24;9.20;99.90
15483;DHT22;7843;50.330;7.312;2023-04-01T21:52:27;9.10;99.90
15483;DHT22;7843;50.330;7.312;2023-04-01T22:07:21;9.00;99.90
15483;DHT22;7843;50.330;7.312;2023-04-01T22:10:05;8.90;99.90
15483;DHT22;7843;50.330;7.312;2023-04-01T22:12:47;8.90;99.90
15483;DHT22;7843;50.330;7.312;2023-04-01T22:15:47;8.90;99.90
15483;DHT22;7843;50.330;7.312;2023-04-01T22:18:31;8.90;99.90
15483;DHT22;7843;50.330;7.312;2023-04-01T22:21:13;8.90;99.90
15483;DHT22;7843;50.330;7.312;2023-04-01T22:26:53;8.90;99.90
15483;DHT22;7843;50.330;7.312;2023-04-01T22:29:35;8.90;99.90
15483;DHT22;7843;50.330;7.312;2023-04-01T22:32:13;8.90;99.90
15483;DHT22;7843;50.330;7.312;2023-04-01T22:34:53;8.90;99.90
15483;DHT22;7843;50.330;7.312;2023-04-01T22:42:46;8.80;99.90
15483;DHT22;7843;50.330;7.312;2023-04-01T22:48:12;8.70;99.90
15483;DHT22;7843;50.330;7.312;2023-04-01T22:50:55;8.70;99.90
15483;DHT22;7843;50.330;7.312;2023-04-01T22:53:30;8.70;99.90
15483;DHT22;7843;50.330;7.312;2023-04-01T22:56:02;8.80;99.90
15483;DHT22;7843;50.330;7.312;2023-04-01T22:58:36;8.70;99.90
15483;DHT22;7843;50.330;7.312;2023-04-01T23:01:14;8.70;99.90
15483;DHT22;7843;50.330;7.312;2023-04-01T23:03:44;8.70;99.90
15483;DHT22;7843;50.330;7.312;2023-04-01T23:06:22;8.70;99.90
15483;DHT22;7843;50.330;7.312;2023-04-01T23:09:12;8.60;99.90
15483;DHT22;7843;50.330;7.312;2023-04-01T23:14:34;8.60;99.90
15483;DHT22;7843;50.330;7.312;2023-04-01T23:22:33;8.50;99.90
15483;DHT22;7843;50.330;7.312;2023-04-01T23:33:26;8.50;99.90
15483;DHT22;7843;50.330;7.312;2023-04-01T23:38:24;8.50;99.90
15483;DHT22;7843;50.330;7.312;2023-04-01T23:40:53;8.60;99.90
15483;DHT22;7843;50.330;7.312;2023-04-01T23:43:34;8.50;99.90
15483;DHT22;7843;50.330;7.312;2023-04-01T23:46:04;8.60;99.90
15483;DHT22;7843;50.330;7.312;2023-04-01T23:48:44;8.50;99.90
15483;DHT22;7843;50.330;7.312;2023-04-01T23:51:36;8.50;99.90
15483;DHT22;7843;50.330;7.312;2023-04-01T23:54:19;8.50;99.90
15483;DHT22;7843;50.330;7.312;2023-04-01T23:56:55;8.50;99.90
15483;DHT22;7843;50.330;7.312;2023-04-01T23:59:35;8.50;99.90
